sensor_id;sensor_type;location;lat;lon;timestamp;temperature;humidity
19799;DHT22;10059;59.850;10.454;2022-07-04T00:01:23;13.90;99.90
19799;DHT22;10059;59.850;10.454;2022-07-04T00:03:51;13.80;99.90
19799;DHT22;10059;59.850;10.454;2022-07-04T00:06:18;13.90;99.90
19799;DHT22;10059;59.850;10.454;2022-07-04T00:08:45;13.90;99.90
19799;DHT22;10059;59.850;10.454;2022-07-04T00:11:12;13.80;99.90
19799;DHT22;10059;59.850;10.454;2022-07-04T00:13:39;13.70;99.90
19799;DHT22;10059;59.850;10.454;2022-07-04T00:16:06;13.80;99.90
19799;DHT22;10059;59.850;10.454;2022-07-04T00:18:33;13.70;99.90
19799;DHT22;10059;59.850;10.454;2022-07-04T00:21:01;13.70;99.90
19799;DHT22;10059;59.850;10.454;2022-07-04T00:23:28;13.70;99.90
19799;DHT22;10059;59.850;10.454;2022-07-04T00:25:55;13.60;99.90
19799;DHT22;10059;59.850;10.454;2022-07-04T00:28:22;13.70;99.90
19799;DHT22;10059;59.850;10.454;2022-07-04T00:30:48;13.60;99.90
19799;DHT22;10059;59.850;10.454;2022-07-04T00:33:15;13.40;99.90
19799;DHT22;10059;59.850;10.454;2022-07-04T00:35:45;13.30;99.90
19799;DHT22;10059;59.850;10.454;2022-07-04T00:38:13;13.50;99.90
19799;DHT22;10059;59.850;10.454;2022-07-04T00:40:40;13.50;99.90
19799;DHT22;10059;59.850;10.454;2022-07-04T00:43:07;13.40;99.90
19799;DHT22;10059;59.850;10.454;2022-07-04T00:45:34;13.40;99.90
19799;DHT22;10059;59.850;10.454;2022-07-04T00:48:01;13.30;99.90
19799;DHT22;10059;59.850;10.454;2022-07-04T00:50:28;13.40;99.90
19799;DHT22;10059;59.850;10.454;2022-07-04T00:52:55;13.30;99.90
19799;DHT22;10059;59.850;10.454;2022-07-04T00:55:24;13.30;99.90
19799;DHT22;10059;59.850;10.454;2022-07-04T00:57:51;13.30;99.90
19799;DHT22;10059;59.850;10.454;2022-07-04T01:00:18;13.40;99.90
19799;DHT22;10059;59.850;10.454;2022-07-04T01:02:46;13.50;99.90
19799;DHT22;10059;59.850;10.454;2022-07-04T01:05:13;13.50;99.90
19799;DHT22;10059;59.850;10.454;2022-07-04T01:07:41;13.50;99.90
19799;DHT22;10059;59.850;10.454;2022-07-04T01:10:09;13.50;99.90
19799;DHT22;10059;59.850;10.454;2022-07-04T01:12:38;13.50;99.90
19799;DHT22;10059;59.850;10.454;2022-07-04T01:15:06;13.50;99.90
19799;DHT22;10059;59.850;10.454;2022-07-04T01:17:33;13.50;99.90
19799;DHT22;10059;59.850;10.454;2022-07-04T01:20:00;13.60;99.90
19799;DHT22;10059;59.850;10.454;2022-07-04T01:22:28;13.50;99.90
19799;DHT22;10059;59.850;10.454;2022-07-04T01:24:55;13.50;99.90
19799;DHT22;10059;59.850;10.454;2022-07-04T01:27:22;13.50;99.90
19799;DHT22;10059;59.850;10.454;2022-07-04T01:29:49;13.50;99.90
19799;DHT22;10059;59.850;10.454;2022-07-04T01:32:16;13.50;99.90
19799;DHT22;10059;59.850;10.454;2022-07-04T01:34:43;13.50;99.90
19799;DHT22;10059;59.850;10.454;2022-07-04T01:37:10;13.40;99.90
19799;DHT22;10059;59.850;10.454;2022-07-04T01:39:39;13.40;99.90
19799;DHT22;10059;59.850;10.454;2022-07-04T01:42:06;13.40;99.90
19799;DHT22;10059;59.850;10.454;2022-07-04T01:44:33;13.40;99.90
19799;DHT22;10059;59.850;10.454;2022-07-04T01:47:01;13.50;99.90
19799;DHT22;10059;59.850;10.454;2022-07-04T01:49:28;13.60;99.90
19799;DHT22;10059;59.850;10.454;2022-07-04T01:51:55;13.60;99.90
19799;DHT22;10059;59.850;10.454;2022-07-04T01:54:22;13.50;99.90
19799;DHT22;10059;59.850;10.454;2022-07-04T01:56:52;13.60;99.90
19799;DHT22;10059;59.850;10.454;2022-07-04T01:59:19;13.60;99.90
19799;DHT22;10059;59.850;10.454;2022-07-04T02:02:06;13.60;99.90
19799;DHT22;10059;59.850;10.454;2022-07-04T02:04:32;13.60;99.90
19799;DHT22;10059;59.850;10.454;2022-07-04T02:07:00;13.70;99.90
19799;DHT22;10059;59.850;10.454;2022-07-04T02:09:27;13.70;99.90
19799;DHT22;10059;59.850;10.454;2022-07-04T02:11:57;13.80;99.90
19799;DHT22;10059;59.850;10.454;2022-07-04T02:14:41;13.90;99.90
19799;DHT22;10059;59.850;10.454;2022-07-04T02:17:09;13.80;99.90
19799;DHT22;10059;59.850;10.454;2022-07-04T02:19:36;13.70;99.90
19799;DHT22;10059;59.850;10.454;2022-07-04T02:22:03;13.80;99.90
19799;DHT22;10059;59.850;10.454;2022-07-04T02:24:30;13.90;99.90
19799;DHT22;10059;59.850;10.454;2022-07-04T02:26:58;14.10;99.90
19799;DHT22;10059;59.850;10.454;2022-07-04T02:29:25;14.10;99.90
19799;DHT22;10059;59.850;10.454;2022-07-04T02:31:52;14.00;99.90
19799;DHT22;10059;59.850;10.454;2022-07-04T02:34:19;14.10;99.90
19799;DHT22;10059;59.850;10.454;2022-07-04T02:36:46;14.00;99.90
19799;DHT22;10059;59.850;10.454;2022-07-04T02:39:13;13.90;99.90
19799;DHT22;10059;59.850;10.454;2022-07-04T02:41:40;14.00;99.90
19799;DHT22;10059;59.850;10.454;2022-07-04T02:44:09;14.10;99.90
19799;DHT22;10059;59.850;10.454;2022-07-04T02:46:36;14.10;99.90
19799;DHT22;10059;59.850;10.454;2022-07-04T02:49:03;14.20;99.90
19799;DHT22;10059;59.850;10.454;2022-07-04T02:51:31;14.30;99.90
19799;DHT22;10059;59.850;10.454;2022-07-04T02:53:58;14.20;99.90
19799;DHT22;10059;59.850;10.454;2022-07-04T02:56:25;14.20;99.90
19799;DHT22;10059;59.850;10.454;2022-07-04T02:58:52;14.20;99.90
19799;DHT22;10059;59.850;10.454;2022-07-04T03:01:21;14.20;99.90
19799;DHT22;10059;59.850;10.454;2022-07-04T03:03:48;14.40;99.90
19799;DHT22;10059;59.850;10.454;2022-07-04T03:06:15;14.40;99.90
19799;DHT22;10059;59.850;10.454;2022-07-04T03:08:42;14.50;99.90
19799;DHT22;10059;59.850;10.454;2022-07-04T03:11:09;14.60;99.90
19799;DHT22;10059;59.850;10.454;2022-07-04T03:13:37;14.70;99.90
19799;DHT22;10059;59.850;10.454;2022-07-04T03:16:04;14.70;99.90
19799;DHT22;10059;59.850;10.454;2022-07-04T03:18:33;14.70;99.90
19799;DHT22;10059;59.850;10.454;2022-07-04T03:21:00;14.80;99.90
19799;DHT22;10059;59.850;10.454;2022-07-04T03:23:29;14.90;99.90
19799;DHT22;10059;59.850;10.454;2022-07-04T03:25:57;15.00;99.90
19799;DHT22;10059;59.850;10.454;2022-07-04T03:28:24;15.10;99.90
19799;DHT22;10059;59.850;10.454;2022-07-04T03:30:51;15.20;99.90
19799;DHT22;10059;59.850;10.454;2022-07-04T03:33:17;15.10;99.90
19799;DHT22;10059;59.850;10.454;2022-07-04T03:35:46;15.20;99.90
19799;DHT22;10059;59.850;10.454;2022-07-04T03:38:13;15.30;99.90
19799;DHT22;10059;59.850;10.454;2022-07-04T03:40:40;15.30;99.90
19799;DHT22;10059;59.850;10.454;2022-07-04T03:43:06;15.30;99.90
19799;DHT22;10059;59.850;10.454;2022-07-04T03:45:34;15.30;99.90
19799;DHT22;10059;59.850;10.454;2022-07-04T03:48:01;15.30;99.90
19799;DHT22;10059;59.850;10.454;2022-07-04T03:50:29;15.30;99.90
19799;DHT22;10059;59.850;10.454;2022-07-04T03:52:57;15.30;99.90
19799;DHT22;10059;59.850;10.454;2022-07-04T03:55:24;15.20;99.90
19799;DHT22;10059;59.850;10.454;2022-07-04T03:57:51;15.40;99.90
19799;DHT22;10059;59.850;10.454;2022-07-04T04:00:18;15.50;99.90
19799;DHT22;10059;59.850;10.454;2022-07-04T04:02:45;15.60;99.90
19799;DHT22;10059;59.850;10.454;2022-07-04T04:05:12;15.60;99.90
19799;DHT22;10059;59.850;10.454;2022-07-04T04:07:58;15.60;99.90
19799;DHT22;10059;59.850;10.454;2022-07-04T04:10:25;15.60;99.90
19799;DHT22;10059;59.850;10.454;2022-07-04T04:12:52;15.70;99.90
19799;DHT22;10059;59.850;10.454;2022-07-04T04:15:19;15.80;99.90
19799;DHT22;10059;59.850;10.454;2022-07-04T04:17:46;15.80;99.90
19799;DHT22;10059;59.850;10.454;2022-07-04T04:20:13;15.90;99.90
19799;DHT22;10059;59.850;10.454;2022-07-04T04:22:40;16.00;99.90
19799;DHT22;10059;59.850;10.454;2022-07-04T04:25:09;16.00;99.90
19799;DHT22;10059;59.850;10.454;2022-07-04T04:27:36;16.00;99.90
19799;DHT22;10059;59.850;10.454;2022-07-04T04:30:03;16.20;99.90
19799;DHT22;10059;59.850;10.454;2022-07-04T04:32:30;16.30;99.90
19799;DHT22;10059;59.850;10.454;2022-07-04T04:34:57;16.40;99.90
19799;DHT22;10059;59.850;10.454;2022-07-04T04:37:24;16.40;99.90
19799;DHT22;10059;59.850;10.454;2022-07-04T04:39:51;16.50;99.90
19799;DHT22;10059;59.850;10.454;2022-07-04T04:42:20;16.50;99.90
19799;DHT22;10059;59.850;10.454;2022-07-04T04:44:46;16.30;99.90
19799;DHT22;10059;59.850;10.454;2022-07-04T04:47:14;16.40;99.90
19799;DHT22;10059;59.850;10.454;2022-07-04T04:49:41;16.40;99.90
19799;DHT22;10059;59.850;10.454;2022-07-04T04:52:08;16.40;99.90
19799;DHT22;10059;59.850;10.454;2022-07-04T04:54:35;16.30;99.90
19799;DHT22;10059;59.850;10.454;2022-07-04T04:57:05;16.30;99.90
19799;DHT22;10059;59.850;10.454;2022-07-04T04:59:34;16.40;99.90
19799;DHT22;10059;59.850;10.454;2022-07-04T05:02:01;16.40;99.90
19799;DHT22;10059;59.850;10.454;2022-07-04T05:04:28;16.50;99.90
19799;DHT22;10059;59.850;10.454;2022-07-04T05:06:55;16.60;99.90
19799;DHT22;10059;59.850;10.454;2022-07-04T05:09:23;16.70;99.90
19799;DHT22;10059;59.850;10.454;2022-07-04T05:11:49;16.90;99.90
19799;DHT22;10059;59.850;10.454;2022-07-04T05:14:16;16.90;99.90
19799;DHT22;10059;59.850;10.454;2022-07-04T05:16:45;17.10;99.90
19799;DHT22;10059;59.850;10.454;2022-07-04T05:19:12;17.40;99.90
19799;DHT22;10059;59.850;10.454;2022-07-04T05:21:39;17.30;99.90
19799;DHT22;10059;59.850;10.454;2022-07-04T05:24:06;17.50;99.90
19799;DHT22;10059;59.850;10.454;2022-07-04T05:26:33;17.70;99.90
19799;DHT22;10059;59.850;10.454;2022-07-04T05:29:00;18.10;99.90
19799;DHT22;10059;59.850;10.454;2022-07-04T05:31:27;18.50;99.90
19799;DHT22;10059;59.850;10.454;2022-07-04T05:33:55;18.30;99.90
19799;DHT22;10059;59.850;10.454;2022-07-04T05:36:22;18.00;99.90
19799;DHT22;10059;59.850;10.454;2022-07-04T05:38:49;17.90;99.90
19799;DHT22;10059;59.850;10.454;2022-07-04T05:41:16;17.70;99.90
19799;DHT22;10059;59.850;10.454;2022-07-04T05:43:43;17.40;99.90
19799;DHT22;10059;59.850;10.454;2022-07-04T05:46:10;17.40;99.90
19799;DHT22;10059;59.850;10.454;2022-07-04T05:48:37;17.30;99.90
19799;DHT22;10059;59.850;10.454;2022-07-04T05:51:05;17.30;99.90
19799;DHT22;10059;59.850;10.454;2022-07-04T05:53:33;17.10;99.90
19799;DHT22;10059;59.850;10.454;2022-07-04T05:56:00;17.40;99.90
19799;DHT22;10059;59.850;10.454;2022-07-04T05:58:27;17.50;99.90
19799;DHT22;10059;59.850;10.454;2022-07-04T06:00:54;18.00;99.90
19799;DHT22;10059;59.850;10.454;2022-07-04T06:03:21;18.40;99.90
19799;DHT22;10059;59.850;10.454;2022-07-04T06:05:47;19.00;99.90
19799;DHT22;10059;59.850;10.454;2022-07-04T06:08:16;19.40;99.90
19799;DHT22;10059;59.850;10.454;2022-07-04T06:10:43;19.50;99.90
19799;DHT22;10059;59.850;10.454;2022-07-04T06:13:10;19.20;99.90
19799;DHT22;10059;59.850;10.454;2022-07-04T06:15:38;19.00;99.90
19799;DHT22;10059;59.850;10.454;2022-07-04T06:18:05;19.20;99.90
19799;DHT22;10059;59.850;10.454;2022-07-04T06:20:32;19.00;99.90
19799;DHT22;10059;59.850;10.454;2022-07-04T06:22:59;18.60;99.90
19799;DHT22;10059;59.850;10.454;2022-07-04T06:25:27;18.40;99.90
19799;DHT22;10059;59.850;10.454;2022-07-04T06:27:54;18.20;99.90
19799;DHT22;10059;59.850;10.454;2022-07-04T06:30:21;18.10;99.90
19799;DHT22;10059;59.850;10.454;2022-07-04T06:32:49;18.20;99.90
19799;DHT22;10059;59.850;10.454;2022-07-04T06:35:21;18.40;99.90
19799;DHT22;10059;59.850;10.454;2022-07-04T06:38:05;18.50;99.90
19799;DHT22;10059;59.850;10.454;2022-07-04T06:40:34;18.40;99.90
19799;DHT22;10059;59.850;10.454;2022-07-04T06:43:02;18.50;99.90
19799;DHT22;10059;59.850;10.454;2022-07-04T06:45:29;18.60;99.90
19799;DHT22;10059;59.850;10.454;2022-07-04T06:47:56;18.80;99.90
19799;DHT22;10059;59.850;10.454;2022-07-04T06:50:23;18.90;99.90
19799;DHT22;10059;59.850;10.454;2022-07-04T06:52:50;18.90;99.90
19799;DHT22;10059;59.850;10.454;2022-07-04T06:55:18;18.80;99.90
19799;DHT22;10059;59.850;10.454;2022-07-04T06:57:46;18.60;99.90
19799;DHT22;10059;59.850;10.454;2022-07-04T07:00:14;18.40;99.90
19799;DHT22;10059;59.850;10.454;2022-07-04T07:02:41;17.90;99.90
19799;DHT22;10059;59.850;10.454;2022-07-04T07:05:08;17.90;99.90
19799;DHT22;10059;59.850;10.454;2022-07-04T07:07:35;18.00;99.90
19799;DHT22;10059;59.850;10.454;2022-07-04T07:10:02;17.90;99.90
19799;DHT22;10059;59.850;10.454;2022-07-04T07:12:31;18.00;99.90
19799;DHT22;10059;59.850;10.454;2022-07-04T07:15:01;18.00;99.90
19799;DHT22;10059;59.850;10.454;2022-07-04T07:17:28;17.80;99.90
19799;DHT22;10059;59.850;10.454;2022-07-04T07:19:55;17.80;99.90
19799;DHT22;10059;59.850;10.454;2022-07-04T07:22:23;17.80;99.90
19799;DHT22;10059;59.850;10.454;2022-07-04T07:24:49;17.90;99.90
19799;DHT22;10059;59.850;10.454;2022-07-04T07:27:17;17.80;99.90
19799;DHT22;10059;59.850;10.454;2022-07-04T07:29:44;17.80;99.90
19799;DHT22;10059;59.850;10.454;2022-07-04T07:32:12;17.90;99.90
19799;DHT22;10059;59.850;10.454;2022-07-04T07:34:39;18.10;99.90
19799;DHT22;10059;59.850;10.454;2022-07-04T07:37:06;18.20;99.90
19799;DHT22;10059;59.850;10.454;2022-07-04T07:39:33;18.20;99.90
19799;DHT22;10059;59.850;10.454;2022-07-04T07:42:00;18.00;99.90
19799;DHT22;10059;59.850;10.454;2022-07-04T07:44:27;18.10;99.90
19799;DHT22;10059;59.850;10.454;2022-07-04T07:46:53;17.80;99.90
19799;DHT22;10059;59.850;10.454;2022-07-04T07:49:23;17.90;99.90
19799;DHT22;10059;59.850;10.454;2022-07-04T07:51:50;18.00;99.90
19799;DHT22;10059;59.850;10.454;2022-07-04T07:54:16;18.00;99.90
19799;DHT22;10059;59.850;10.454;2022-07-04T07:56:44;18.00;99.90
19799;DHT22;10059;59.850;10.454;2022-07-04T07:59:11;18.10;99.90
19799;DHT22;10059;59.850;10.454;2022-07-04T08:01:38;18.10;99.90
19799;DHT22;10059;59.850;10.454;2022-07-04T08:04:05;18.10;99.90
19799;DHT22;10059;59.850;10.454;2022-07-04T08:06:50;18.00;99.90
19799;DHT22;10059;59.850;10.454;2022-07-04T08:09:17;18.00;99.90
19799;DHT22;10059;59.850;10.454;2022-07-04T08:11:44;17.90;99.90
19799;DHT22;10059;59.850;10.454;2022-07-04T08:14:11;18.20;99.90
19799;DHT22;10059;59.850;10.454;2022-07-04T08:16:38;18.10;99.90
19799;DHT22;10059;59.850;10.454;2022-07-04T08:19:06;18.20;99.90
19799;DHT22;10059;59.850;10.454;2022-07-04T08:21:33;18.30;99.90
19799;DHT22;10059;59.850;10.454;2022-07-04T08:24:01;18.40;99.90
19799;DHT22;10059;59.850;10.454;2022-07-04T08:26:28;18.40;99.90
19799;DHT22;10059;59.850;10.454;2022-07-04T08:28:55;18.40;99.90
19799;DHT22;10059;59.850;10.454;2022-07-04T08:31:23;18.40;99.90
19799;DHT22;10059;59.850;10.454;2022-07-04T08:33:50;18.40;99.90
19799;DHT22;10059;59.850;10.454;2022-07-04T08:36:17;18.50;99.90
19799;DHT22;10059;59.850;10.454;2022-07-04T08:38:44;18.40;99.90
19799;DHT22;10059;59.850;10.454;2022-07-04T08:41:15;18.40;99.90
19799;DHT22;10059;59.850;10.454;2022-07-04T08:43:43;18.80;99.90
19799;DHT22;10059;59.850;10.454;2022-07-04T08:46:12;19.50;99.90
19799;DHT22;10059;59.850;10.454;2022-07-04T08:48:43;20.10;99.90
19799;DHT22;10059;59.850;10.454;2022-07-04T08:51:16;20.60;99.90
19799;DHT22;10059;59.850;10.454;2022-07-04T08:53:49;21.00;99.90
19799;DHT22;10059;59.850;10.454;2022-07-04T08:56:19;21.30;99.90
19799;DHT22;10059;59.850;10.454;2022-07-04T08:59:05;21.30;99.90
19799;DHT22;10059;59.850;10.454;2022-07-04T09:01:33;21.80;99.90
19799;DHT22;10059;59.850;10.454;2022-07-04T09:04:01;21.80;99.90
19799;DHT22;10059;59.850;10.454;2022-07-04T09:06:30;22.30;99.90
19799;DHT22;10059;59.850;10.454;2022-07-04T09:08:58;22.60;99.90
19799;DHT22;10059;59.850;10.454;2022-07-04T09:11:27;22.50;99.90
19799;DHT22;10059;59.850;10.454;2022-07-04T09:13:56;22.20;99.90
19799;DHT22;10059;59.850;10.454;2022-07-04T09:16:23;22.30;99.90
19799;DHT22;10059;59.850;10.454;2022-07-04T09:18:53;22.50;99.90
19799;DHT22;10059;59.850;10.454;2022-07-04T09:21:21;22.20;99.90
19799;DHT22;10059;59.850;10.454;2022-07-04T09:23:50;22.00;99.90
19799;DHT22;10059;59.850;10.454;2022-07-04T09:26:18;22.20;99.90
19799;DHT22;10059;59.850;10.454;2022-07-04T09:28:53;22.40;99.90
19799;DHT22;10059;59.850;10.454;2022-07-04T09:31:23;22.80;99.90
19799;DHT22;10059;59.850;10.454;2022-07-04T09:33:52;22.60;99.90
19799;DHT22;10059;59.850;10.454;2022-07-04T09:36:21;22.50;99.90
19799;DHT22;10059;59.850;10.454;2022-07-04T09:39:05;22.30;99.90
19799;DHT22;10059;59.850;10.454;2022-07-04T09:41:50;22.60;99.90
19799;DHT22;10059;59.850;10.454;2022-07-04T09:44:19;22.30;99.90
19799;DHT22;10059;59.850;10.454;2022-07-04T09:46:46;22.20;99.90
19799;DHT22;10059;59.850;10.454;2022-07-04T09:49:13;22.50;99.90
19799;DHT22;10059;59.850;10.454;2022-07-04T09:51:41;23.00;99.90
19799;DHT22;10059;59.850;10.454;2022-07-04T09:54:20;23.00;99.90
19799;DHT22;10059;59.850;10.454;2022-07-04T09:56:51;23.30;99.90
19799;DHT22;10059;59.850;10.454;2022-07-04T09:59:21;23.10;99.90
19799;DHT22;10059;59.850;10.454;2022-07-04T10:01:48;22.30;99.90
19799;DHT22;10059;59.850;10.454;2022-07-04T10:04:15;22.20;99.90
19799;DHT22;10059;59.850;10.454;2022-07-04T10:06:43;22.00;99.90
19799;DHT22;10059;59.850;10.454;2022-07-04T10:09:12;21.80;99.90
19799;DHT22;10059;59.850;10.454;2022-07-04T10:11:40;21.60;99.90
19799;DHT22;10059;59.850;10.454;2022-07-04T10:14:09;21.10;99.90
19799;DHT22;10059;59.850;10.454;2022-07-04T10:16:38;21.30;99.90
19799;DHT22;10059;59.850;10.454;2022-07-04T10:19:06;21.70;99.90
19799;DHT22;10059;59.850;10.454;2022-07-04T10:21:33;22.00;99.90
19799;DHT22;10059;59.850;10.454;2022-07-04T10:24:01;22.10;99.90
19799;DHT22;10059;59.850;10.454;2022-07-04T10:26:30;21.70;99.90
19799;DHT22;10059;59.850;10.454;2022-07-04T10:28:57;21.60;99.90
19799;DHT22;10059;59.850;10.454;2022-07-04T10:31:27;21.70;99.90
19799;DHT22;10059;59.850;10.454;2022-07-04T10:33:57;22.00;99.90
19799;DHT22;10059;59.850;10.454;2022-07-04T10:36:25;21.40;99.90
19799;DHT22;10059;59.850;10.454;2022-07-04T10:38:55;21.00;99.90
19799;DHT22;10059;59.850;10.454;2022-07-04T10:41:25;20.90;99.90
19799;DHT22;10059;59.850;10.454;2022-07-04T10:44:00;21.10;99.90
19799;DHT22;10059;59.850;10.454;2022-07-04T10:49:26;22.20;99.90
19799;DHT22;10059;59.850;10.454;2022-07-04T10:51:55;22.60;99.90
19799;DHT22;10059;59.850;10.454;2022-07-04T10:54:28;22.70;99.90
19799;DHT22;10059;59.850;10.454;2022-07-04T10:56:57;22.70;99.90
19799;DHT22;10059;59.850;10.454;2022-07-04T10:59:32;22.60;99.90
19799;DHT22;10059;59.850;10.454;2022-07-04T11:02:24;23.10;99.90
19799;DHT22;10059;59.850;10.454;2022-07-04T11:04:59;22.80;99.90
19799;DHT22;10059;59.850;10.454;2022-07-04T11:07:55;22.50;99.90
19799;DHT22;10059;59.850;10.454;2022-07-04T11:10:22;22.40;99.90
19799;DHT22;10059;59.850;10.454;2022-07-04T11:13:07;22.50;99.90
19799;DHT22;10059;59.850;10.454;2022-07-04T11:16:00;22.60;99.90
19799;DHT22;10059;59.850;10.454;2022-07-04T11:18:27;22.40;99.90
19799;DHT22;10059;59.850;10.454;2022-07-04T11:20:56;22.00;99.90
19799;DHT22;10059;59.850;10.454;2022-07-04T11:23:23;22.00;99.90
19799;DHT22;10059;59.850;10.454;2022-07-04T11:25:51;22.20;99.90
19799;DHT22;10059;59.850;10.454;2022-07-04T11:28:23;22.60;99.90
19799;DHT22;10059;59.850;10.454;2022-07-04T11:30:50;22.70;99.90
19799;DHT22;10059;59.850;10.454;2022-07-04T11:33:19;22.80;99.90
19799;DHT22;10059;59.850;10.454;2022-07-04T11:38:50;23.20;99.90
19799;DHT22;10059;59.850;10.454;2022-07-04T11:41:20;23.40;99.90
19799;DHT22;10059;59.850;10.454;2022-07-04T11:44:07;22.80;99.90
19799;DHT22;10059;59.850;10.454;2022-07-04T11:47:01;22.80;99.90
19799;DHT22;10059;59.850;10.454;2022-07-04T11:49:29;23.70;99.90
19799;DHT22;10059;59.850;10.454;2022-07-04T11:51:56;23.70;99.90
19799;DHT22;10059;59.850;10.454;2022-07-04T11:54:24;23.50;99.90
19799;DHT22;10059;59.850;10.454;2022-07-04T11:56:51;22.90;99.90
19799;DHT22;10059;59.850;10.454;2022-07-04T11:59:18;23.00;99.90
19799;DHT22;10059;59.850;10.454;2022-07-04T12:01:45;22.90;99.90
19799;DHT22;10059;59.850;10.454;2022-07-04T12:04:16;22.70;99.90
19799;DHT22;10059;59.850;10.454;2022-07-04T12:06:45;22.00;99.90
19799;DHT22;10059;59.850;10.454;2022-07-04T12:09:12;21.80;99.90
19799;DHT22;10059;59.850;10.454;2022-07-04T12:11:54;21.20;99.90
19799;DHT22;10059;59.850;10.454;2022-07-04T12:14:22;20.50;99.90
19799;DHT22;10059;59.850;10.454;2022-07-04T12:16:49;20.40;99.90
19799;DHT22;10059;59.850;10.454;2022-07-04T12:19:16;20.40;99.90
19799;DHT22;10059;59.850;10.454;2022-07-04T12:21:43;20.60;99.90
19799;DHT22;10059;59.850;10.454;2022-07-04T12:24:11;20.50;99.90
19799;DHT22;10059;59.850;10.454;2022-07-04T12:26:46;20.50;99.90
19799;DHT22;10059;59.850;10.454;2022-07-04T12:29:22;20.50;99.90
19799;DHT22;10059;59.850;10.454;2022-07-04T12:31:51;20.50;99.90
19799;DHT22;10059;59.850;10.454;2022-07-04T12:34:20;20.40;99.90
19799;DHT22;10059;59.850;10.454;2022-07-04T12:36:51;20.10;99.90
19799;DHT22;10059;59.850;10.454;2022-07-04T12:39:29;20.10;99.90
19799;DHT22;10059;59.850;10.454;2022-07-04T12:42:09;20.20;99.90
19799;DHT22;10059;59.850;10.454;2022-07-04T12:44:39;20.20;99.90
19799;DHT22;10059;59.850;10.454;2022-07-04T12:47:07;19.80;99.90
19799;DHT22;10059;59.850;10.454;2022-07-04T12:49:34;19.80;99.90
19799;DHT22;10059;59.850;10.454;2022-07-04T12:52:06;19.40;99.90
19799;DHT22;10059;59.850;10.454;2022-07-04T12:54:33;19.30;99.90
19799;DHT22;10059;59.850;10.454;2022-07-04T12:57:05;19.30;99.90
19799;DHT22;10059;59.850;10.454;2022-07-04T12:59:32;19.20;99.90
19799;DHT22;10059;59.850;10.454;2022-07-04T13:02:01;19.20;99.90
19799;DHT22;10059;59.850;10.454;2022-07-04T13:04:28;19.30;99.90
19799;DHT22;10059;59.850;10.454;2022-07-04T13:06:57;19.30;99.90
19799;DHT22;10059;59.850;10.454;2022-07-04T13:09:24;19.10;99.90
19799;DHT22;10059;59.850;10.454;2022-07-04T13:11:51;19.00;99.90
19799;DHT22;10059;59.850;10.454;2022-07-04T13:14:36;19.50;99.90
19799;DHT22;10059;59.850;10.454;2022-07-04T13:17:04;20.10;99.90
19799;DHT22;10059;59.850;10.454;2022-07-04T13:19:31;20.40;99.90
19799;DHT22;10059;59.850;10.454;2022-07-04T13:21:58;20.60;99.90
19799;DHT22;10059;59.850;10.454;2022-07-04T13:24:25;20.70;99.90
19799;DHT22;10059;59.850;10.454;2022-07-04T13:26:52;20.60;99.90
19799;DHT22;10059;59.850;10.454;2022-07-04T13:29:20;20.80;99.90
19799;DHT22;10059;59.850;10.454;2022-07-04T13:31:48;21.00;99.90
19799;DHT22;10059;59.850;10.454;2022-07-04T13:34:16;20.70;99.90
19799;DHT22;10059;59.850;10.454;2022-07-04T13:36:43;20.80;99.90
19799;DHT22;10059;59.850;10.454;2022-07-04T13:39:10;21.10;99.90
19799;DHT22;10059;59.850;10.454;2022-07-04T13:41:38;21.50;99.90
19799;DHT22;10059;59.850;10.454;2022-07-04T13:44:05;21.70;99.90
19799;DHT22;10059;59.850;10.454;2022-07-04T13:46:34;21.20;99.90
19799;DHT22;10059;59.850;10.454;2022-07-04T13:49:02;21.20;99.90
19799;DHT22;10059;59.850;10.454;2022-07-04T13:51:31;21.60;99.90
19799;DHT22;10059;59.850;10.454;2022-07-04T13:53:58;22.00;99.90
19799;DHT22;10059;59.850;10.454;2022-07-04T13:56:25;22.30;99.90
19799;DHT22;10059;59.850;10.454;2022-07-04T13:58:52;22.20;99.90
19799;DHT22;10059;59.850;10.454;2022-07-04T14:01:20;22.10;99.90
19799;DHT22;10059;59.850;10.454;2022-07-04T14:03:48;21.80;99.90
19799;DHT22;10059;59.850;10.454;2022-07-04T14:06:17;21.30;99.90
19799;DHT22;10059;59.850;10.454;2022-07-04T14:08:45;21.20;99.90
19799;DHT22;10059;59.850;10.454;2022-07-04T14:11:12;21.40;99.90
19799;DHT22;10059;59.850;10.454;2022-07-04T14:13:39;21.70;99.90
19799;DHT22;10059;59.850;10.454;2022-07-04T14:16:06;21.50;99.90
19799;DHT22;10059;59.850;10.454;2022-07-04T14:18:33;21.20;99.90
19799;DHT22;10059;59.850;10.454;2022-07-04T14:21:00;21.00;99.90
19799;DHT22;10059;59.850;10.454;2022-07-04T14:23:27;20.80;99.90
19799;DHT22;10059;59.850;10.454;2022-07-04T14:26:13;20.10;99.90
19799;DHT22;10059;59.850;10.454;2022-07-04T14:28:42;20.00;99.90
19799;DHT22;10059;59.850;10.454;2022-07-04T14:31:10;20.20;99.90
19799;DHT22;10059;59.850;10.454;2022-07-04T14:33:37;20.00;99.90
19799;DHT22;10059;59.850;10.454;2022-07-04T14:36:05;20.10;99.90
19799;DHT22;10059;59.850;10.454;2022-07-04T14:38:33;20.40;99.90
19799;DHT22;10059;59.850;10.454;2022-07-04T14:41:00;20.40;99.90
19799;DHT22;10059;59.850;10.454;2022-07-04T14:43:38;20.40;99.90
19799;DHT22;10059;59.850;10.454;2022-07-04T14:46:05;20.00;99.90
19799;DHT22;10059;59.850;10.454;2022-07-04T14:48:32;20.10;99.90
19799;DHT22;10059;59.850;10.454;2022-07-04T14:51:00;20.30;99.90
19799;DHT22;10059;59.850;10.454;2022-07-04T14:53:27;20.60;99.90
19799;DHT22;10059;59.850;10.454;2022-07-04T14:55:53;20.70;99.90
19799;DHT22;10059;59.850;10.454;2022-07-04T14:58:20;20.80;99.90
19799;DHT22;10059;59.850;10.454;2022-07-04T15:00:49;21.20;99.90
19799;DHT22;10059;59.850;10.454;2022-07-04T15:03:16;21.30;99.90
19799;DHT22;10059;59.850;10.454;2022-07-04T15:05:43;21.40;99.90
19799;DHT22;10059;59.850;10.454;2022-07-04T15:08:10;21.60;99.90
19799;DHT22;10059;59.850;10.454;2022-07-04T15:10:37;21.60;99.90
19799;DHT22;10059;59.850;10.454;2022-07-04T15:13:04;21.00;99.90
19799;DHT22;10059;59.850;10.454;2022-07-04T15:15:31;20.60;99.90
19799;DHT22;10059;59.850;10.454;2022-07-04T15:17:59;20.50;99.90
19799;DHT22;10059;59.850;10.454;2022-07-04T15:20:26;20.40;99.90
19799;DHT22;10059;59.850;10.454;2022-07-04T15:23:11;20.10;99.90
19799;DHT22;10059;59.850;10.454;2022-07-04T15:25:55;20.10;99.90
19799;DHT22;10059;59.850;10.454;2022-07-04T15:28:22;20.30;99.90
19799;DHT22;10059;59.850;10.454;2022-07-04T15:30:49;20.30;99.90